Time;durP1;ratioP1;P1;durP2;ratioP2;P2;SDS_P1;SDS_P2;PMS_P1;PMS_P2;Temp;Humidity;BMP_temperature;BMP_pressure;BME280_temperature;BME280_humidity;BME280_pressure;Samples;Min_cycle;Max_cycle;Signal;HPM_P1;HPM_P2
2022/08/27 00:00:46;;;;;;;11.85;9.43;;;;;;;22.73;57.43;99751.34;5033176;28;20103;-72
2022/08/27 00:03:14;;;;;;;18.33;11.13;;;;;;;22.46;57.55;99715.16;5032827;28;20049;-73
2022/08/27 00:05:41;;;;;;;10.52;9.60;;;;;;;22.67;57.51;99756.53;5032445;28;20091;-73
2022/08/27 00:08:11;;;;;;;10.82;9.13;;;;;;;22.69;57.49;99763.47;5032867;28;20187;-73
2022/08/27 00:10:39;;;;;;;12.57;9.32;;;;;;;22.42;57.57;99714.25;5032951;28;20056;-72
2022/08/27 00:13:06;;;;;;;15.63;9.27;;;;;;;22.74;57.57;99753.00;5032878;28;20050;-72
2022/08/27 00:15:34;;;;;;;10.07;8.95;;;;;;;22.51;57.36;99719.69;5032916;28;20494;-72
2022/08/27 00:18:01;;;;;;;15.27;10.23;;;;;;;22.69;57.59;99742.75;5032976;28;20099;-73
2022/08/27 00:20:27;;;;;;;10.45;9.30;;;;;;;22.77;57.68;99753.06;5036643;28;20446;-73
2022/08/27 00:22:55;;;;;;;10.23;8.48;;;;;;;22.73;57.40;99755.00;5034783;28;20107;-73
2022/08/27 00:25:22;;;;;;;13.85;9.60;;;;;;;22.57;57.61;99732.41;5036291;28;20053;-72
2022/08/27 00:27:49;;;;;;;8.55;7.80;;;;;;;22.65;57.46;99734.16;5036573;28;20054;-73
2022/08/27 00:30:19;;;;;;;10.05;9.23;;;;;;;22.57;57.76;99725.91;5036321;28;20111;-72
2022/08/27 00:32:46;;;;;;;11.93;9.43;;;;;;;22.48;58.09;99732.66;5035045;28;20041;-73
2022/08/27 00:35:14;;;;;;;11.65;9.35;;;;;;;22.55;57.39;99719.75;5036122;28;20049;-73
2022/08/27 00:37:42;;;;;;;9.20;8.10;;;;;;;22.65;57.57;99724.78;5036321;28;20149;-73
2022/08/27 00:40:14;;;;;;;13.65;9.05;;;;;;;22.62;57.63;99717.00;5036561;28;20049;-73
2022/08/27 00:42:41;;;;;;;12.98;9.52;;;;;;;22.50;57.49;99698.16;5036005;28;20041;-73
2022/08/27 00:45:08;;;;;;;12.73;9.57;;;;;;;22.63;57.79;99707.25;5036676;28;20045;-73
2022/08/27 00:47:43;;;;;;;13.38;10.18;;;;;;;22.71;57.41;99724.09;5036277;28;20049;-74
2022/08/27 00:50:13;;;;;;;10.30;9.27;;;;;;;22.77;57.68;99729.44;5036186;28;20096;-74
2022/08/27 00:52:50;;;;;;;12.18;10.95;;;;;;;22.51;57.76;99684.72;5035716;28;20079;-74
2022/08/27 00:55:23;;;;;;;11.43;10.18;;;;;;;22.78;57.46;99714.00;5035048;28;20076;-73
2022/08/27 00:58:01;;;;;;;13.98;8.57;;;;;;;22.76;58.02;99711.53;5036450;28;20498;-72
2022/08/27 01:00:31;;;;;;;10.73;9.60;;;;;;;22.81;57.59;99714.06;5035843;28;20054;-73
2022/08/27 01:02:58;;;;;;;11.18;8.65;;;;;;;22.88;57.35;99714.19;5035625;28;20045;-73
2022/08/27 01:05:26;;;;;;;13.90;9.85;;;;;;;22.71;57.41;99697.66;5036084;28;20049;-72
2022/08/27 01:07:58;;;;;;;9.77;8.48;;;;;;;23.02;56.92;99729.84;5036144;28;20083;-73
2022/08/27 01:10:27;;;;;;;11.45;9.57;;;;;;;22.98;57.63;99737.53;5035933;28;20049;-73
2022/08/27 01:12:55;;;;;;;13.85;10.10;;;;;;;23.02;57.27;99724.97;5036087;28;20056;-72
2022/08/27 01:15:26;;;;;;;12.63;9.13;;;;;;;23.03;56.71;99711.56;5050887;28;20391;-72
2022/08/27 01:17:56;;;;;;;15.38;9.63;;;;;;;22.98;56.80;99706.22;5035626;28;20068;-72
2022/08/27 01:20:28;;;;;;;15.68;9.20;;;;;;;22.81;57.27;99687.63;5035654;28;20103;-72
2022/08/27 01:23:26;;;;;;;11.05;8.52;;;;;;;22.84;57.07;99698.25;5034141;28;20096;-72
2022/08/27 01:25:53;;;;;;;10.65;8.98;;;;;;;22.80;57.08;99714.44;5037880;28;20053;-73
2022/08/27 01:28:21;;;;;;;12.80;8.77;;;;;;;22.79;57.16;99707.09;5037142;28;20057;-73
2022/08/27 01:30:52;;;;;;;9.70;8.70;;;;;;;22.83;57.12;99714.50;5046412;28;20053;-74
2022/08/27 01:33:20;;;;;;;9.18;8.27;;;;;;;22.62;57.25;99665.78;5041721;28;20064;-74
2022/08/27 01:35:49;;;;;;;9.45;8.60;;;;;;;22.74;57.48;99679.81;5035389;28;20072;-74
2022/08/27 01:38:18;;;;;;;14.05;8.63;;;;;;;22.50;57.47;99651.81;5035265;28;20069;-73
2022/08/27 01:40:56;;;;;;;12.88;8.57;;;;;;;22.74;57.68;99691.19;5033974;28;20076;-73
2022/08/27 01:43:23;;;;;;;10.68;8.32;;;;;;;22.51;57.50;99654.25;5034818;28;20103;-74
2022/08/27 01:45:50;;;;;;;11.80;8.77;;;;;;;22.66;57.68;99670.31;5033917;28;20131;-74
2022/08/27 01:48:19;;;;;;;11.95;9.30;;;;;;;22.75;57.57;99677.78;5048726;28;20044;-74
2022/08/27 01:50:47;;;;;;;11.07;9.10;;;;;;;22.37;57.48;99612.19;5054936;28;20049;-74
2022/08/27 01:53:18;;;;;;;9.65;8.75;;;;;;;22.72;57.81;99670.81;5054402;28;20087;-74
2022/08/27 01:55:48;;;;;;;12.93;8.73;;;;;;;22.54;57.38;99635.59;5054933;28;20049;-74
2022/08/27 01:58:17;;;;;;;11.57;8.68;;;;;;;22.82;57.67;99675.84;5053337;28;20056;-73
2022/08/27 02:00:47;;;;;;;9.65;8.77;;;;;;;22.75;58.00;99672.91;5054379;28;20072;-74
2022/08/27 02:03:22;;;;;;;10.02;9.13;;;;;;;22.76;57.59;99683.06;5054485;28;20476;-73
2022/08/27 02:05:49;;;;;;;11.70;9.25;;;;;;;22.66;57.79;99683.72;5053569;28;20048;-73
2022/08/27 02:08:17;;;;;;;10.07;8.98;;;;;;;22.71;57.93;99707.00;5054347;28;20048;-74
2022/08/27 02:10:46;;;;;;;9.88;8.88;;;;;;;22.69;57.99;99714.28;5054273;28;20057;-74
2022/08/27 02:13:14;;;;;;;14.20;9.20;;;;;;;22.64;57.86;99706.91;5054185;28;20495;-73
2022/08/27 02:15:42;;;;;;;14.63;8.63;;;;;;;22.67;58.10;99711.81;5069710;28;20072;-73
2022/08/27 02:18:10;;;;;;;15.77;9.02;;;;;;;22.63;58.03;99712.97;5054097;28;20075;-73
2022/08/27 02:20:38;;;;;;;17.60;9.35;;;;;;;22.54;58.49;99703.88;5053245;28;20052;-73
2022/08/27 02:23:06;;;;;;;8.93;7.97;;;;;;;22.53;58.54;99696.53;5054334;28;20045;-73
2022/08/27 02:25:33;;;;;;;16.05;9.73;;;;;;;22.39;58.33;99678.06;5053956;28;20088;-73
2022/08/27 02:28:00;;;;;;;12.07;8.25;;;;;;;22.49;58.34;99696.47;5056169;28;20103;-73
2022/08/27 02:30:30;;;;;;;12.82;11.52;;;;;;;22.43;58.41;99686.66;5034047;28;20053;-74
2022/08/27 02:33:02;;;;;;;13.73;9.07;;;;;;;22.37;58.50;99666.22;5034274;28;20084;-74
2022/08/27 02:35:32;;;;;;;37.45;24.55;;;;;;;22.47;58.12;99682.66;5033883;28;20069;-73
2022/08/27 02:37:59;;;;;;;16.20;10.85;;;;;;;22.38;58.33;99667.88;5036925;28;20099;-73
2022/08/27 02:40:26;;;;;;;13.35;8.82;;;;;;;22.41;58.44;99684.16;5053165;28;20061;-73
2022/08/27 02:42:53;;;;;;;11.90;8.93;;;;;;;22.25;58.90;99663.59;5054065;28;20118;-74
2022/08/27 02:45:20;;;;;;;10.93;8.77;;;;;;;22.37;58.72;99673.94;5069455;28;20056;-74
2022/08/27 02:47:47;;;;;;;13.52;8.90;;;;;;;22.33;58.78;99664.53;5053582;28;20080;-73
2022/08/27 02:50:15;;;;;;;13.73;9.10;;;;;;;22.24;58.87;99659.09;5053866;28;20044;-74
2022/08/27 02:52:44;;;;;;;12.85;8.43;;;;;;;21.74;58.73;99573.78;5053439;28;20095;-74
2022/08/27 02:55:13;;;;;;;11.20;8.20;;;;;;;22.03;59.16;99621.75;5052902;28;20095;-73
2022/08/27 02:57:43;;;;;;;12.05;9.02;;;;;;;22.30;59.14;99671.81;5053614;28;20052;-73
2022/08/27 03:00:13;;;;;;;9.07;8.25;;;;;;;21.69;58.83;99579.78;5053440;28;20505;-73
2022/08/27 03:02:40;;;;;;;9.57;8.48;;;;;;;22.00;59.23;99634.72;5053676;28;20045;-73
2022/08/27 03:05:08;;;;;;;20.63;11.38;;;;;;;22.19;59.09;99665.13;5048460;28;20046;-73
2022/08/27 03:07:36;;;;;;;13.88;9.15;;;;;;;21.87;59.31;99625.53;5033618;28;20050;-73
2022/08/27 03:10:05;;;;;;;21.55;9.50;;;;;;;22.18;59.50;99664.28;5033166;28;20095;-73
2022/08/27 03:12:34;;;;;;;10.55;8.95;;;;;;;22.18;59.38;99658.59;5041016;28;20045;-73
2022/08/27 03:15:02;;;;;;;;;;;;;;;22.12;59.10;99664.94;5054153;28;20048;-72
2022/08/27 03:20:15;;;;;;;12.75;8.88;;;;;;;22.07;58.96;99668.13;5052881;28;20084;-72
2022/08/27 03:22:42;;;;;;;10.00;9.07;;;;;;;21.98;59.18;99665.53;5052921;28;20563;-73
2022/08/27 03:25:10;;;;;;;8.68;8.00;;;;;;;21.98;59.57;99663.53;5053188;28;20072;-73
2022/08/27 03:27:38;;;;;;;13.15;9.25;;;;;;;22.01;59.29;99664.78;5043078;28;20045;-74
2022/08/27 03:30:17;;;;;;;10.20;8.60;;;;;;;22.08;59.37;99652.69;5033374;28;20057;-74
2022/08/27 03:32:44;;;;;;;13.13;8.50;;;;;;;21.90;59.30;99618.28;5032842;28;20088;-73
2022/08/27 03:35:12;;;;;;;11.60;9.15;;;;;;;22.24;59.47;99664.78;5032838;28;20085;-72
2022/08/27 03:37:39;;;;;;;10.38;8.90;;;;;;;22.33;58.96;99679.59;5032859;28;20072;-72
2022/08/27 03:40:06;;;;;;;10.75;8.82;;;;;;;22.06;59.09;99616.13;5033006;28;20102;-73
2022/08/27 03:42:35;;;;;;;11.30;10.05;;;;;;;22.43;58.45;99667.56;5032776;28;20042;-73
2022/08/27 03:45:02;;;;;;;10.45;8.55;;;;;;;22.06;59.32;99609.63;5032657;28;20116;-73
2022/08/27 03:47:31;;;;;;;9.13;7.95;;;;;;;22.49;58.78;99650.97;5033359;28;20560;-73
2022/08/27 03:50:01;;;;;;;12.15;8.43;;;;;;;22.59;58.50;99660.88;5031799;28;20446;-73
2022/08/27 03:52:28;;;;;;;;;;;;;;;22.51;58.26;99654.25;5013323;28;20084;-73
2022/08/27 03:54:55;;;;;;;16.98;9.48;;;;;;;22.41;58.41;99638.66;5012840;28;20408;-72
2022/08/27 03:57:22;;;;;;;11.13;8.10;;;;;;;22.48;58.43;99670.06;5013015;28;20510;-72
2022/08/27 03:59:48;;;;;;;10.40;8.18;;;;;;;22.36;58.67;99658.91;5013111;28;20085;-73
2022/08/27 04:02:19;;;;;;;10.75;8.20;;;;;;;22.20;58.46;99641.16;5012828;28;20130;-73
2022/08/27 04:04:47;;;;;;;10.05;8.88;;;;;;;22.21;58.62;99628.59;5032029;28;20049;-73
2022/08/27 04:07:13;;;;;;;10.85;8.85;;;;;;;22.38;58.96;99649.97;5031363;28;20518;-73
2022/08/27 04:09:41;;;;;;;13.32;9.57;;;;;;;22.40;58.92;99648.41;5032392;28;20164;-73
2022/08/27 04:12:08;;;;;;;11.55;9.15;;;;;;;22.24;58.92;99627.81;5031073;28;20077;-73
2022/08/27 04:14:34;;;;;;;15.52;9.25;;;;;;;22.21;58.46;99622.91;5032286;28;20490;-73
2022/08/27 04:17:02;;;;;;;19.25;9.68;;;;;;;21.93;58.92;99583.44;5031146;28;20106;-73
2022/08/27 04:19:31;;;;;;;10.95;9.10;;;;;;;21.69;58.93;99550.53;5032371;28;20088;-73
2022/08/27 04:21:59;;;;;;;;;;;;;;;22.19;58.90;99636.69;5044097;28;20049;-73
2022/08/27 04:24:28;;;;;;;9.80;8.88;;;;;;;22.24;58.93;99640.00;5020504;28;19921;-73
2022/08/27 04:26:55;;;;;;;14.13;9.40;;;;;;;21.95;58.74;99607.44;5012727;28;20090;-73
2022/08/27 04:29:21;;;;;;;12.80;8.93;;;;;;;21.92;58.71;99593.97;5030185;28;20506;-73
2022/08/27 04:31:48;;;;;;;12.45;8.40;;;;;;;22.19;58.90;99619.63;5032248;28;20099;-74
2022/08/27 04:34:16;;;;;;;13.30;8.43;;;;;;;22.25;58.75;99635.16;5032224;28;20093;-74
2022/08/27 04:36:44;;;;;;;9.10;8.30;;;;;;;22.16;58.81;99620.38;5033002;28;20049;-73
2022/08/27 04:39:13;;;;;;;13.55;8.68;;;;;;;22.30;59.00;99649.06;5032319;28;20095;-72
2022/08/27 04:41:41;;;;;;;15.65;8.27;;;;;;;22.24;59.57;99644.88;5032407;28;20081;-72
2022/08/27 04:44:09;;;;;;;9.95;7.88;;;;;;;22.04;59.58;99609.19;5031512;28;20111;-73
2022/08/27 04:46:38;;;;;;;12.13;8.80;;;;;;;22.05;59.47;99617.34;5032283;28;20058;-73
2022/08/27 04:49:09;;;;;;;13.35;8.63;;;;;;;22.08;59.88;99629.97;5032154;28;20064;-73
2022/08/27 04:51:37;;;;;;;12.10;9.70;;;;;;;22.00;59.64;99615.63;5032226;28;20572;-73
2022/08/27 04:54:07;;;;;;;15.52;9.60;;;;;;;22.11;59.84;99638.53;5036807;28;20053;-74
2022/08/27 04:56:35;;;;;;;13.18;8.25;;;;;;;22.06;59.77;99624.66;5052196;28;20111;-72
2022/08/27 04:59:06;;;;;;;11.15;8.82;;;;;;;21.84;59.68;99591.38;5051825;28;20103;-72
2022/08/27 05:01:34;;;;;;;13.20;12.05;;;;;;;21.91;59.60;99603.69;5052720;28;20483;-73
2022/08/27 05:04:03;;;;;;;11.27;8.80;;;;;;;22.18;59.20;99641.53;5055786;28;20421;-73
2022/08/27 05:06:30;;;;;;;9.63;8.70;;;;;;;22.18;59.35;99644.38;5071508;28;20422;-72
2022/08/27 05:08:57;;;;;;;10.02;9.00;;;;;;;22.20;59.10;99649.69;5055376;28;20567;-74
2022/08/27 05:11:30;;;;;;;12.00;9.55;;;;;;;22.03;59.46;99624.59;5054427;28;20053;-73
2022/08/27 05:13:58;;;;;;;12.15;9.13;;;;;;;21.84;59.16;99600.72;5055343;28;20052;-72
2022/08/27 05:16:25;;;;;;;9.98;9.02;;;;;;;21.88;59.67;99624.38;5066020;28;20563;-72
2022/08/27 05:18:52;;;;;;;12.32;9.70;;;;;;;21.81;59.23;99617.72;5035395;28;20099;-72
2022/08/27 05:21:23;;;;;;;12.82;9.07;;;;;;;22.04;59.52;99646.13;5035449;28;20049;-72
2022/08/27 05:23:51;;;;;;;9.95;8.27;;;;;;;21.85;59.78;99627.16;5035464;28;20041;-71
2022/08/27 05:26:18;;;;;;;11.55;9.35;;;;;;;21.89;59.87;99650.78;5035072;28;20552;-74
2022/08/27 05:28:45;;;;;;;11.55;9.15;;;;;;;21.86;59.67;99660.06;5044693;28;20056;-73
2022/08/27 05:31:13;;;;;;;11.65;10.05;;;;;;;21.75;59.75;99646.47;5055342;28;20110;-74
2022/08/27 05:33:43;;;;;;;12.13;8.35;;;;;;;21.57;59.89;99611.19;5055029;28;20045;-73
2022/08/27 05:36:25;;;;;;;12.27;8.15;;;;;;;21.72;60.04;99641.53;5055346;28;20049;-73
2022/08/27 05:38:53;;;;;;;19.70;9.43;;;;;;;21.57;60.10;99630.28;5055176;28;20114;-73
2022/08/27 05:41:32;;;;;;;11.05;8.57;;;;;;;21.26;60.27;99600.84;5055093;28;20049;-73
2022/08/27 05:44:09;;;;;;;10.60;8.35;;;;;;;21.43;60.46;99642.19;5054820;28;20051;-72
2022/08/27 05:46:56;;;;;;;10.40;9.48;;;;;;;21.15;60.50;99616.84;5034995;28;20050;-72
2022/08/27 05:49:23;;;;;;;12.35;9.38;;;;;;;21.50;60.65;99662.22;5034776;28;20077;-73
2022/08/27 05:51:50;;;;;;;15.40;9.68;;;;;;;21.41;60.62;99648.25;5034962;28;20053;-73
2022/08/27 05:54:20;;;;;;;12.05;9.52;;;;;;;21.32;61.10;99633.44;5035342;28;20056;-73
2022/08/27 05:56:50;;;;;;;10.13;9.10;;;;;;;21.35;60.77;99637.56;5034738;28;20487;-73
2022/08/27 06:02:05;;;;;;;19.70;11.23;;;;;;;21.23;60.84;99647.88;5034826;28;20096;-72
2022/08/27 06:04:33;;;;;;;15.70;10.10;;;;;;;21.27;61.13;99671.47;5035814;28;20073;-73
2022/08/27 06:07:00;;;;;;;11.55;9.70;;;;;;;21.19;61.32;99660.34;5035625;28;20049;-72
2022/08/27 06:09:28;;;;;;;16.80;10.50;;;;;;;21.25;61.19;99668.19;5037571;28;20056;-72
2022/08/27 06:12:01;;;;;;;12.25;10.23;;;;;;;21.22;61.31;99662.44;5038460;28;20053;-72
2022/08/27 06:14:29;;;;;;;12.63;10.05;;;;;;;20.91;61.17;99618.00;5037553;28;20075;-72
2022/08/27 06:16:58;;;;;;;15.70;10.57;;;;;;;21.21;61.56;99663.63;5043249;28;20073;-71
2022/08/27 06:19:25;;;;;;;10.98;10.07;;;;;;;21.33;61.53;99685.38;5046229;28;20049;-73
2022/08/27 06:21:53;;;;;;;14.35;9.75;;;;;;;21.36;61.69;99678.97;5054216;28;20092;-73
2022/08/27 06:24:38;;;;;;;10.75;9.77;;;;;;;21.39;61.64;99686.75;5054094;28;20057;-73
2022/08/27 06:27:05;;;;;;;15.65;10.23;;;;;;;21.25;61.42;99653.16;5053989;28;20498;-73
2022/08/27 06:29:33;;;;;;;11.60;10.43;;;;;;;21.39;61.64;99684.72;5053838;28;20567;-73
2022/08/27 06:32:00;;;;;;;13.07;10.00;;;;;;;21.28;61.72;99667.44;5053932;28;20052;-74
2022/08/27 06:34:27;;;;;;;11.05;10.20;;;;;;;21.59;61.57;99698.91;5054395;28;20298;-73
2022/08/27 06:36:55;;;;;;;12.00;9.93;;;;;;;21.62;61.72;99686.81;5053027;28;20557;-73
2022/08/27 06:39:22;;;;;;;14.77;8.77;;;;;;;21.70;61.45;99697.91;5056262;28;20049;-72
2022/08/27 06:41:51;;;;;;;11.32;9.82;;;;;;;21.42;61.24;99632.84;5055169;28;20059;-73
2022/08/27 06:44:19;;;;;;;14.88;13.30;;;;;;;21.90;61.25;99690.16;5054833;28;20049;-74
2022/08/27 06:46:46;;;;;;;13.07;10.73;;;;;;;22.06;60.79;99711.97;5054074;28;20413;-73
2022/08/27 06:49:13;;;;;;;15.52;10.52;;;;;;;22.14;60.93;99700.34;5053527;28;20053;-73
2022/08/27 06:51:46;;;;;;;11.55;9.50;;;;;;;22.24;60.38;99688.38;5053490;28;20060;-73
2022/08/27 06:54:13;;;;;;;11.68;9.20;;;;;;;22.44;60.75;99717.56;5052925;28;20103;-74
2022/08/27 06:56:42;;;;;;;13.10;9.68;;;;;;;22.50;60.63;99718.06;5053712;28;20048;-74
2022/08/27 06:59:13;;;;;;;14.60;10.25;;;;;;;22.58;60.25;99711.25;5053756;28;20539;-73
2022/08/27 07:01:43;;;;;;;12.93;10.15;;;;;;;22.64;60.02;99703.25;5053293;28;20102;-74
2022/08/27 07:04:12;;;;;;;;;;;;;;;22.74;60.17;99713.97;5053573;28;20045;-74
2022/08/27 07:06:39;;;;;;;14.35;10.55;;;;;;;22.87;59.52;99694.63;5053226;28;20408;-74
2022/08/27 07:09:08;;;;;;;11.30;9.18;;;;;;;22.84;59.48;99655.56;5035988;28;20551;-73
2022/08/27 07:11:36;;;;;;;12.73;10.23;;;;;;;23.29;59.40;99702.97;5049990;28;20615;-73
2022/08/27 07:14:05;;;;;;;15.13;11.75;;;;;;;23.46;59.40;99700.75;5053132;28;20102;-74
2022/08/27 07:16:32;;;;;;;22.60;16.00;;;;;;;23.31;59.10;99646.41;5047740;28;20490;-74
2022/08/27 07:19:02;;;;;;;17.65;12.75;;;;;;;23.92;58.73;99706.16;5033267;28;20283;-74
2022/08/27 07:21:31;;;;;;;18.17;12.80;;;;;;;24.12;58.38;99699.03;5033200;28;20052;-74
2022/08/27 07:24:03;;;;;;;15.80;10.93;;;;;;;24.47;57.61;99703.44;5032960;28;20050;-74
2022/08/27 07:26:33;;;;;;;17.95;11.55;;;;;;;24.64;57.12;99682.75;5032959;28;20053;-74
2022/08/27 07:29:01;;;;;;;10.75;9.52;;;;;;;24.92;56.70;99687.00;5013253;28;20058;-74
2022/08/27 07:31:28;;;;;;;16.50;10.32;;;;;;;25.43;56.30;99709.75;5028660;28;20096;-75
2022/08/27 07:33:55;;;;;;;11.13;9.82;;;;;;;25.43;55.34;99663.19;5013037;28;20108;-75
2022/08/27 07:36:23;;;;;;;11.23;9.90;;;;;;;26.00;54.84;99706.28;5013147;28;20499;-73
2022/08/27 07:38:51;;;;;;;13.88;10.15;;;;;;;26.19;54.05;99714.50;5012942;28;20053;-73
2022/08/27 07:41:28;;;;;;;19.30;14.45;;;;;;;26.13;54.02;99667.47;5013462;28;20054;-74
2022/08/27 07:46:46;;;;;;;16.23;11.55;;;;;;;26.84;53.02;99708.78;5033149;28;20057;-74
2022/08/27 07:49:19;;;;;;;15.48;12.43;;;;;;;27.11;52.55;99701.34;5047848;28;20103;-74
2022/08/27 07:51:46;;;;;;;21.45;17.30;;;;;;;27.45;51.99;99715.16;5033010;28;20077;-74
2022/08/27 07:54:13;;;;;;;30.50;22.13;;;;;;;27.60;51.25;99711.00;5032652;28;20088;-75
2022/08/27 07:56:41;;;;;;;17.95;14.40;;;;;;;27.70;51.00;99691.31;5032772;28;20053;-75
2022/08/27 07:59:20;;;;;;;16.77;12.25;;;;;;;28.08;50.52;99721.84;5032534;28;20429;-74
2022/08/27 08:01:49;;;;;;;16.60;12.18;;;;;;;28.34;50.35;99713.84;5033031;28;20407;-74
2022/08/27 08:04:16;;;;;;;11.30;10.20;;;;;;;28.67;49.63;99717.31;5032598;28;20095;-75
2022/08/27 08:06:46;;;;;;;;;;;;;;;28.72;50.76;99705.38;5033138;28;20124;-74
2022/08/27 08:09:12;;;;;;;14.88;12.05;;;;;;;29.20;49.33;99718.88;5032408;28;19925;-74
2022/08/27 08:11:40;;;;;;;22.98;13.93;;;;;;;29.37;48.59;99703.47;5031398;28;20057;-74
2022/08/27 08:14:07;;;;;;;18.10;11.90;;;;;;;29.15;47.91;99619.50;5033053;28;20073;-73
2022/08/27 08:16:33;;;;;;;13.90;10.52;;;;;;;29.63;47.54;99684.63;5032394;28;20080;-74
2022/08/27 08:19:01;;;;;;;11.80;10.38;;;;;;;29.45;46.62;99627.31;5044438;28;20059;-74
2022/08/27 08:21:28;;;;;;;12.60;10.52;;;;;;;30.17;46.43;99712.66;5052775;28;20098;-75
2022/08/27 08:23:54;;;;;;;10.75;9.38;;;;;;;30.41;45.41;99694.19;5052186;28;20048;-74
2022/08/27 08:26:22;;;;;;;10.85;9.40;;;;;;;30.69;45.06;99697.81;5052575;28;20095;-75
2022/08/27 08:28:49;;;;;;;13.73;9.45;;;;;;;30.73;44.63;99704.31;5052082;28;20057;-74
2022/08/27 08:31:16;;;;;;;10.35;9.32;;;;;;;30.26;44.10;99664.00;5052715;28;20056;-75
2022/08/27 08:33:45;;;;;;;10.38;8.90;;;;;;;30.48;44.58;99709.72;5052133;28;20053;-75
2022/08/27 08:36:14;;;;;;;10.48;9.32;;;;;;;30.43;43.82;99680.16;5051400;28;20084;-74
2022/08/27 08:38:41;;;;;;;;;;;;;;;30.14;46.00;99707.75;5042194;28;20494;-75
2022/08/27 08:41:27;;;;;;;10.80;9.70;;;;;;;30.10;44.84;99702.06;5036317;28;19967;-75
2022/08/27 08:43:58;;;;;;;10.52;9.52;;;;;;;29.91;44.32;99654.63;5035050;28;20103;-75
2022/08/27 08:46:47;;;;;;;12.13;10.93;;;;;;;30.18;44.38;99692.09;5036242;28;20148;-75
2022/08/27 08:49:20;;;;;;;11.88;9.05;;;;;;;30.52;44.05;99704.72;5034711;28;20156;-74
2022/08/27 08:51:48;;;;;;;12.13;9.68;;;;;;;31.03;43.33;99714.13;5019191;28;20077;-74
2022/08/27 08:54:19;;;;;;;11.73;8.88;;;;;;;31.28;42.70;99691.38;5034728;28;20091;-74
2022/08/27 08:57:20;;;;;;;11.25;9.23;;;;;;;31.71;42.05;99710.69;5014934;28;20564;-74
2022/08/27 09:00:00;;;;;;;12.15;10.07;;;;;;;31.91;41.87;99690.47;5027115;28;20081;-74
2022/08/27 09:02:27;;;;;;;13.70;12.40;;;;;;;32.36;41.36;99715.00;5035530;28;20073;-74
2022/08/27 09:05:05;;;;;;;10.70;8.98;;;;;;;32.46;40.69;99690.84;5050029;28;20060;-74
2022/08/27 09:07:46;;;;;;;11.67;9.47;;;;;;;32.57;40.52;99697.16;5035555;28;20053;-74
2022/08/27 09:10:37;;;;;;;13.05;11.90;;;;;;;32.45;40.31;99721.81;5035951;28;20084;-73
2022/08/27 09:13:11;;;;;;;12.70;9.32;;;;;;;32.49;40.22;99684.97;5050784;28;20088;-73
2022/08/27 09:15:39;;;;;;;16.05;9.52;;;;;;;32.79;39.60;99698.22;5035481;28;20084;-74
2022/08/27 09:18:09;;;;;;;12.15;9.23;;;;;;;32.85;39.14;99695.59;5035221;28;20559;-74
2022/08/27 09:20:45;;;;;;;10.85;9.40;;;;;;;32.75;39.01;99668.59;5035493;28;20100;-74
2022/08/27 09:23:32;;;;;;;12.82;11.45;;;;;;;32.96;38.83;99718.50;5034084;28;20054;-73
2022/08/27 09:25:59;;;;;;;21.02;11.50;;;;;;;32.59;38.87;99720.66;5035842;28;20085;-73
2022/08/27 09:31:19;;;;;;;18.65;12.32;;;;;;;32.58;39.10;99724.78;5018572;28;20050;-73
2022/08/27 09:33:46;;;;;;;15.90;14.27;;;;;;;32.49;39.01;99721.72;5027391;28;20057;-74
2022/08/27 09:36:23;;;;;;;14.43;11.55;;;;;;;32.06;39.22;99670.75;5030298;28;20152;-74
2022/08/27 09:38:57;;;;;;;14.05;12.20;;;;;;;32.42;39.39;99736.38;5026869;28;20088;-76
2022/08/27 09:41:28;;;;;;;20.13;13.18;;;;;;;32.07;39.13;99684.75;5026883;28;20057;-74
2022/08/27 09:44:00;;;;;;;22.98;16.63;;;;;;;32.51;38.60;99717.13;5026280;28;20062;-74
2022/08/27 09:46:28;;;;;;;19.80;14.27;;;;;;;32.80;38.63;99757.69;5031000;28;20049;-75
2022/08/27 09:48:55;;;;;;;20.10;18.00;;;;;;;32.66;38.20;99754.34;5027672;28;20091;-82
2022/08/27 09:51:28;;;;;;;18.90;14.40;;;;;;;32.63;38.11;99724.25;5027079;28;20089;-73
2022/08/27 09:53:55;;;;;;;17.23;15.40;;;;;;;32.86;38.10;99762.94;5026635;28;20050;-73
2022/08/27 09:56:31;;;;;;;21.25;15.75;;;;;;;33.02;38.10;99760.84;5029029;28;20107;-72
2022/08/27 09:59:01;;;;;;;20.27;12.55;;;;;;;33.19;37.63;99757.94;5030661;28;20084;-72
2022/08/27 10:01:32;;;;;;;20.17;14.55;;;;;;;33.39;37.08;99767.28;5032377;28;20118;-73
2022/08/27 10:04:11;;;;;;;15.98;12.25;;;;;;;33.29;37.63;99764.69;5024475;28;20041;-81
2022/08/27 10:06:47;;;;;;;18.52;13.63;;;;;;;33.40;37.26;99765.19;5026878;28;20131;-76
2022/08/27 10:09:47;;;;;;;17.00;13.93;;;;;;;32.92;37.31;99715.63;5024942;28;20081;-82
2022/08/27 10:12:31;;;;;;;17.13;13.45;;;;;;;32.94;37.22;99747.00;5026956;28;20140;-73
2022/08/27 10:15:00;;;;;;;17.98;15.68;;;;;;;33.42;37.14;99780.03;5027743;28;20128;-71
2022/08/27 10:18:04;;;;;;;19.67;13.82;;;;;;;33.17;37.54;99775.75;5024245;28;20116;-71
2022/08/27 10:20:55;;;;;;;18.60;16.65;;;;;;;33.20;37.05;99785.59;5029947;28;20042;-70
2022/08/27 10:23:43;;;;;;;17.38;15.13;;;;;;;32.82;37.63;99724.59;5029473;28;20107;-67
2022/08/27 10:26:14;;;;;;;17.45;13.02;;;;;;;33.46;37.06;99801.81;5019577;28;20146;-69
2022/08/27 10:28:59;;;;;;;17.17;14.23;;;;;;;33.54;36.99;99782.22;5023865;28;20142;-68
2022/08/27 10:31:44;;;;;;;23.35;14.30;;;;;;;33.70;36.70;99785.03;5029566;28;20164;-70
2022/08/27 10:34:31;;;;;;;19.13;13.82;;;;;;;33.58;36.60;99782.91;5025277;28;20450;-74
2022/08/27 10:37:16;;;;;;;16.02;13.52;;;;;;;33.62;37.31;99777.81;5026460;28;20053;-72
2022/08/27 10:39:57;;;;;;;18.77;14.55;;;;;;;33.69;36.87;99779.72;5025615;28;20084;-74
2022/08/27 10:43:17;;;;;;;19.40;16.45;;;;;;;33.31;37.21;99785.31;5027868;28;20053;-74
2022/08/27 10:46:24;;;;;;;21.27;14.55;;;;;;;33.14;37.16;99787.41;5003669;28;20079;-73
2022/08/27 10:49:13;;;;;;;17.10;13.68;;;;;;;32.92;37.02;99735.88;5030134;28;20041;-70
2022/08/27 10:51:52;;;;;;;23.48;14.48;;;;;;;33.23;37.18;99779.72;5026746;28;20045;-70
2022/08/27 10:54:37;;;;;;;18.67;14.35;;;;;;;33.55;36.54;99777.22;5029779;28;20049;-69
2022/08/27 10:57:36;;;;;;;25.00;16.73;;;;;;;33.57;36.87;99775.47;5026616;28;20666;-68
2022/08/27 11:00:24;;;;;;;19.85;13.18;;;;;;;33.37;36.64;99769.00;5028631;28;20069;-69
2022/08/27 11:02:50;;;;;;;;;;;;;;;32.89;38.14;99779.34;5029590;28;20042;-70
2022/08/27 11:05:20;;;;;;;21.33;16.42;;;;;;;33.25;37.85;99776.38;5031734;28;19964;-69
2022/08/27 11:07:55;;;;;;;20.70;15.10;;;;;;;33.77;36.71;99774.50;5026739;28;20084;-67
2022/08/27 11:10:27;;;;;;;20.33;13.30;;;;;;;33.88;36.13;99754.72;5029029;28;20057;-71
2022/08/27 11:12:58;;;;;;;18.05;14.60;;;;;;;33.66;36.25;99758.25;5043088;28;20080;-70
2022/08/27 11:15:32;;;;;;;20.10;15.77;;;;;;;33.71;36.40;99783.78;5023977;28;20041;-70
2022/08/27 11:18:18;;;;;;;20.23;14.35;;;;;;;33.87;36.29;99777.09;5031822;28;20512;-73
2022/08/27 11:21:33;;;;;;;16.25;13.40;;;;;;;34.02;36.54;99771.72;5030905;28;20160;-72
2022/08/27 11:24:18;;;;;;;23.02;14.27;;;;;;;33.95;36.24;99783.50;5001054;28;20045;-73
2022/08/27 11:26:48;;;;;;;18.50;14.68;;;;;;;33.85;36.09;99765.16;5026731;28;20509;-72
2022/08/27 11:29:23;;;;;;;17.05;13.95;;;;;;;34.16;36.17;99762.59;5017309;28;20081;-73
2022/08/27 11:31:58;;;;;;;18.45;13.55;;;;;;;34.58;35.34;99750.09;5025936;28;20080;-73
2022/08/27 11:34:45;;;;;;;17.17;15.10;;;;;;;34.79;35.17;99754.34;5026824;28;20049;-74
2022/08/27 11:37:12;;;;;;;17.92;13.32;;;;;;;35.01;35.15;99784.28;5023562;28;20073;-74
2022/08/27 11:40:00;;;;;;;18.35;15.20;;;;;;;35.23;35.03;99766.13;5026628;28;20623;-73
2022/08/27 11:42:40;;;;;;;19.90;13.25;;;;;;;35.41;34.15;99757.56;5021705;28;20064;-68
2022/08/27 11:45:15;;;;;;;17.48;12.20;;;;;;;35.20;33.81;99727.22;5028805;28;20077;-68
2022/08/27 11:48:13;;;;;;;18.58;12.45;;;;;;;35.42;34.11;99772.88;5030407;28;20041;-68
2022/08/27 11:50:53;;;;;;;20.70;13.75;;;;;;;35.62;33.72;99747.25;5031180;28;20406;-68
2022/08/27 11:53:35;;;;;;;14.50;12.88;;;;;;;36.04;33.04;99773.91;5031253;28;20081;-68
2022/08/27 11:56:42;;;;;;;15.15;12.60;;;;;;;35.96;33.45;99763.78;5026823;28;20045;-69